| time (UTC) | temp C | wind direction | speed KPH | gust KPH | rain 1hr cm | rain 24hr cm | rain mn cm | humidity % | barometer mb |
| 20260906150054 | 25 | 136 | 4.8 | 16.1 | 0.00 | 0.00 | 0.00 | 78 | 1016.6 |
| 20260906144554 | 26 | 77 | 4.8 | 14.5 | 0.00 | 0.00 | 0.00 | 75 | 1016.5 |
| 20260906143045 | 25 | 42 | 6.4 | 14.5 | 0.00 | 0.00 | 0.00 | 78 | 1016.4 |
| 20260906141556 | 26 | 338 | 6.4 | 16.1 | 0.00 | 0.00 | 0.00 | 78 | 1016.2 |
| 20260906140055 | 26 | 48 | 6.4 | 14.5 | 0.00 | 0.00 | 0.00 | 77 | 1016.3 |
| 20260906134549 | 25 | 90 | 3.2 | 12.9 | 0.00 | 0.00 | 0.00 | 78 | 1016.2 |
| 20260906133047 | 25 | 58 | 3.2 | 11.3 | 0.00 | 0.00 | 0.00 | 80 | 1016.3 |
| 20260906131555 | 23 | 38 | 4.8 | 14.5 | 0.00 | 0.00 | 0.00 | 83 | 1016.3 |
| 20260906130105 | 24 | 76 | 4.8 | 11.3 | 0.00 | 0.00 | 0.00 | 82 | 1016.3 |
| 20260906124546 | 23 | 29 | 4.8 | 11.3 | 0.00 | 0.00 | 0.00 | 82 | 1016.4 |
| 20260906123048 | 23 | 92 | 3.2 | 9.7 | 0.00 | 0.00 | 0.00 | 84 | 1016.2 |
| 20260906121554 | 23 | 63 | 3.2 | 11.3 | 0.00 | 0.00 | 0.00 | 85 | 1016.1 |
| 20260906120057 | 23 | 0 | 1.6 | 6.4 | 0.00 | 0.00 | 0.00 | 86 | 1015.8 |
| 20260906114556 | 23 | 86 | 1.6 | 8.0 | 0.00 | 0.00 | 0.00 | 87 | 1015.6 |
| 20260906113054 | 23 | 0 | 1.6 | 9.7 | 0.00 | 0.00 | 0.00 | 86 | 1015.4 |
| 20260906111545 | 23 | 63 | 3.2 | 11.3 | 0.00 | 0.00 | 0.00 | 85 | 1015.4 |
| 20260906110057 | 23 | 90 | 1.6 | 9.7 | 0.00 | 0.00 | 0.00 | 85 | 1015.4 |
| 20260906104551 | 23 | 119 | 3.2 | 11.3 | 0.00 | 0.00 | 0.00 | 85 | 1015.2 |
| 20260906103048 | 23 | 84 | 4.8 | 12.9 | 0.00 | 0.00 | 0.00 | 85 | 1015.1 |
| 20260906101547 | 23 | 53 | 3.2 | 11.3 | 0.00 | 0.00 | 0.00 | 85 | 1015.1 |
| 20260906100055 | 23 | 71 | 1.6 | 11.3 | 0.00 | 0.00 | 0.00 | 85 | 1014.9 |
| 20260906094548 | 24 | 0 | 3.2 | 11.3 | 0.00 | 0.00 | 0.00 | 85 | 1014.7 |
| 20260906093047 | 24 | 85 | 3.2 | 16.1 | 0.00 | 0.00 | 0.00 | 84 | 1014.8 |
| 20260906091553 | 25 | 89 | 3.2 | 14.5 | 0.00 | 0.00 | 0.00 | 84 | 1014.8 |
| 20260906090106 | 25 | 90 | 3.2 | 14.5 | 0.00 | 0.00 | 0.00 | 84 | 1014.6 |
| 20260906084549 | 25 | 0 | 3.2 | 12.9 | 0.00 | 0.00 | 0.00 | 84 | 1014.6 |
| 20260906083049 | 25 | 82 | 3.2 | 12.9 | 0.00 | 0.00 | 0.00 | 84 | 1014.3 |
| 20260906081553 | 25 | 0 | 3.2 | 16.1 | 0.00 | 0.00 | 0.00 | 84 | 1014.2 |
| 20260906080056 | 26 | 75 | 4.8 | 16.1 | 0.00 | 0.00 | 0.00 | 83 | 1014.2 |
| 20260906074610 | 26 | 96 | 8.0 | 17.7 | 0.00 | 0.00 | 0.00 | 83 | 1014.2 |
| 20260906073049 | 26 | 92 | 4.8 | 17.7 | 0.00 | 0.00 | 0.00 | 83 | 1014.3 |
| 20260906071546 | 27 | 49 | 3.2 | 9.7 | 0.00 | 0.00 | 0.00 | 82 | 1014.3 |
| 20260906070047 | 27 | 79 | 3.2 | 9.7 | 0.00 | 0.00 | 0.00 | 80 | 1014.2 |
| 20260906064554 | 27 | 65 | 3.2 | 9.7 | 0.00 | 0.00 | 0.00 | 79 | 1014.2 |
| 20260906063050 | 27 | 98 | 1.6 | 6.4 | 0.00 | 0.00 | 0.00 | 78 | 1014.2 |
| 20260906061555 | 28 | 98 | 1.6 | 9.7 | 0.00 | 0.00 | 0.00 | 77 | 1014.2 |
| 20260906060047 | 28 | 115 | 1.6 | 9.7 | 0.00 | 0.00 | 0.00 | 76 | 1014.2 |
| 20260906054552 | 28 | 133 | 3.2 | 11.3 | 0.00 | 0.00 | 0.00 | 75 | 1014.3 |
| 20260906053046 | 28 | 66 | 3.2 | 9.7 | 0.00 | 0.00 | 0.00 | 74 | 1014.2 |
| 20260906051559 | 29 | 92 | 3.2 | 9.7 | 0.00 | 0.00 | 0.00 | 73 | 1014.2 |
| 20260906050055 | 29 | 93 | 1.6 | 9.7 | 0.00 | 0.00 | 0.00 | 72 | 1014.1 |
| 20260906044552 | 29 | 102 | 1.6 | 6.4 | 0.00 | 0.00 | 0.00 | 71 | 1014.0 |
| 20260906043048 | 29 | 165 | 1.6 | 4.8 | 0.00 | 0.00 | 0.00 | 70 | 1013.7 |
| 20260906041547 | 30 | 147 | 1.6 | 9.7 | 0.00 | 0.00 | 0.00 | 69 | 1013.7 |
| 20260906040058 | 30 | 45 | 3.2 | 9.7 | 0.00 | 0.00 | 0.00 | 68 | 1013.5 |
| 20260906034550 | 30 | 141 | 0.0 | 4.8 | 0.00 | 0.00 | 0.00 | 67 | 1013.6 |
| 20260906033051 | 30 | 157 | 1.6 | 6.4 | 0.00 | 0.00 | 0.00 | 65 | 1013.6 |
| 20260906031600 | 30 | 178 | 1.6 | 4.8 | 0.00 | 0.00 | 0.00 | 64 | 1013.4 |
| 20260906030055 | 30 | 150 | 1.6 | 9.7 | 0.00 | 0.00 | 0.00 | 62 | 1013.3 |
| 20260906024547 | 31 | 111 | 3.2 | 8.0 | 0.00 | 0.00 | 0.00 | 61 | 1013.1 |
| 20260906023056 | 31 | 99 | 3.2 | 9.7 | 0.00 | 0.00 | 0.00 | 60 | 1013.0 |
| 20260906021554 | 31 | 58 | 1.6 | 6.4 | 0.00 | 0.00 | 0.00 | 59 | 1012.9 |
| 20260906014547 | 31 | 63 | 1.6 | 6.4 | 0.00 | 0.00 | 0.00 | 61 | 1012.4 |
| 20260906013100 | 31 | 45 | 3.2 | 8.0 | 0.00 | 0.00 | 0.00 | 59 | 1012.2 |
| 20260906011554 | 32 | 355 | 1.6 | 4.8 | 0.00 | 0.00 | 0.00 | 58 | 1012.1 |
| 20260906010055 | 32 | 22 | 1.6 | 6.4 | 0.00 | 0.00 | 0.00 | 58 | 1011.9 |
| 20260906004546 | 32 | 14 | 1.6 | 6.4 | 0.00 | 0.00 | 0.00 | 56 | 1011.8 |
| 20260906003056 | 32 | 28 | 3.2 | 14.5 | 0.00 | 0.00 | 0.00 | 55 | 1011.9 |
| 20260906001551 | 33 | 41 | 6.4 | 16.1 | 0.00 | 0.00 | 0.00 | 52 | 1011.9 |
| 20260906000051 | 33 | 49 | 4.8 | 12.9 | 0.00 | 0.00 | 0.00 | 50 | 1012.0 |
| 20260905234546 | 34 | 12 | 3.2 | 8.0 | 0.00 | 0.00 | 0.00 | 49 | 1012.0 |
| 20260905233057 | 35 | 28 | 3.2 | 14.5 | 0.00 | 0.00 | 0.00 | 47 | 1012.1 |
| 20260905231551 | 35 | 352 | 4.8 | 9.7 | 0.00 | 0.00 | 0.00 | 45 | 1012.1 |
| 20260905230052 | 36 | 22 | 6.4 | 12.9 | 0.00 | 0.00 | 0.00 | 43 | 1012.1 |
| 20260905224605 | 36 | 27 | 4.8 | 14.5 | 0.00 | 0.00 | 0.00 | 43 | 1012.1 |
| 20260905223052 | 36 | 33 | 4.8 | 16.1 | 0.00 | 0.00 | 0.00 | 42 | 1011.7 |
| 20260905221558 | 36 | 32 | 8.0 | 22.5 | 0.00 | 0.00 | 0.00 | 41 | 1011.9 |
| 20260905220108 | 37 | 5 | 6.4 | 17.7 | 0.00 | 0.00 | 0.00 | 39 | 1011.9 |
| 20260905214552 | 37 | 46 | 6.4 | 16.1 | 0.00 | 0.00 | 0.00 | 40 | 1011.8 |
| 20260905213053 | 37 | 76 | 6.4 | 14.5 | 0.00 | 0.00 | 0.00 | 40 | 1011.7 |
| 20260905211557 | 37 | 329 | 4.8 | 17.7 | 0.00 | 0.00 | 0.00 | 38 | 1011.7 |
| 20260905210052 | 38 | 40 | 6.4 | 17.7 | 0.00 | 0.00 | 0.00 | 39 | 1012.0 |
| 20260905204558 | 38 | 19 | 4.8 | 19.3 | 0.00 | 0.00 | 0.00 | 39 | 1012.3 |
| 20260905203113 | 38 | 74 | 14.5 | 24.1 | 0.00 | 0.00 | 0.00 | 35 | 1012.1 |
| 20260905201546 | 40 | 55 | 4.8 | 17.7 | 0.00 | 0.00 | 0.00 | 37 | 1012.2 |
| 20260905194551 | 40 | 23 | 11.3 | 24.1 | 0.00 | 0.00 | 0.00 | 36 | 1012.4 |
| 20260905193046 | 40 | 310 | 9.7 | 22.5 | 0.00 | 0.00 | 0.00 | 34 | 1012.4 |
| 20260905191546 | 38 | 320 | 1.6 | 12.9 | 0.00 | 0.00 | 0.00 | 37 | 1012.7 |
| 20260905190056 | 39 | 28 | 8.0 | 19.3 | 0.00 | 0.00 | 0.00 | 35 | 1012.8 |
| 20260905184600 | 40 | 328 | 8.0 | 20.9 | 0.00 | 0.00 | 0.00 | 33 | 1012.9 |
| 20260905183050 | 40 | 268 | 4.8 | 14.5 | 0.00 | 0.00 | 0.00 | 33 | 1013.0 |
| 20260905181609 | 40 | 350 | 4.8 | 16.1 | 0.00 | 0.00 | 0.00 | 37 | 1013.2 |
| 20260905180054 | 38 | 360 | 6.4 | 14.5 | 0.00 | 0.00 | 0.00 | 36 | 1013.4 |
| 20260905174552 | 39 | 82 | 6.4 | 16.1 | 0.00 | 0.00 | 0.00 | 38 | 1013.6 |
| 20260905173056 | 38 | 339 | 3.2 | 11.3 | 0.00 | 0.00 | 0.00 | 40 | 1013.6 |
| 20260905171546 | 38 | 37 | 4.8 | 14.5 | 0.00 | 0.00 | 0.00 | 40 | 1013.8 |
| 20260905170058 | 39 | 327 | 3.2 | 11.3 | 0.00 | 0.00 | 0.00 | 39 | 1014.2 |
| 20260905164551 | 38 | 352 | 3.2 | 12.9 | 0.00 | 0.00 | 0.00 | 40 | 1014.2 |
| 20260905163049 | 37 | 350 | 4.8 | 11.3 | 0.00 | 0.00 | 0.00 | 41 | 1014.4 |
| 20260905161556 | 38 | 313 | 4.8 | 11.3 | 0.00 | 0.00 | 0.00 | 40 | 1014.3 |
| 20260905160125 | 38 | 42 | 1.6 | 9.7 | 0.00 | 0.00 | 0.00 | 41 | 1014.5 |
| 20260905154549 | 37 | 26 | 6.4 | 9.7 | 0.00 | 0.00 | 0.00 | 42 | 1014.4 |
| 20260905153049 | 36 | 0 | 1.6 | 9.7 | 0.00 | 0.00 | 0.00 | 47 | 1014.5 |
| 20260905151602 | 36 | 242 | 3.2 | 9.7 | 0.00 | 0.00 | 0.00 | 48 | 1014.5 |